createdAt,value
2022-11-20T00:00:18.905Z,364.27
2022-11-20T00:03:05.685Z,362.38
2022-11-20T00:05:34.144Z,355.33
2022-11-20T00:08:00.864Z,357.13
2022-11-20T00:10:27.928Z,342.48
2022-11-20T00:12:54.730Z,360.02
2022-11-20T00:15:21.744Z,347.08
2022-11-20T00:17:48.505Z,344.55
2022-11-20T00:20:15.668Z,360.38
2022-11-20T00:22:42.390Z,350.45
2022-11-20T00:25:09.713Z,348.17
2022-11-20T00:27:36.710Z,342.17
2022-11-20T00:30:04.666Z,360.55
2022-11-20T00:32:31.404Z,364.38
2022-11-20T00:34:58.436Z,366.75
2022-11-20T00:37:25.146Z,353.38
2022-11-20T00:39:52.196Z,343.25
2022-11-20T00:42:19.049Z,347.73
2022-11-20T00:44:46.115Z,359.10
2022-11-20T00:47:12.879Z,378.42
2022-11-20T00:49:39.988Z,367.73
2022-11-20T00:52:06.715Z,349.10
2022-11-20T00:54:33.747Z,355.02
2022-11-20T00:57:00.486Z,361.65
2022-11-20T00:59:27.551Z,354.10
2022-11-20T01:01:54.307Z,346.45
2022-11-20T01:04:21.354Z,353.88
2022-11-20T01:06:48.084Z,354.65
2022-11-20T01:09:15.227Z,361.17
2022-11-20T01:11:43.414Z,348.65
2022-11-20T01:14:12.928Z,356.83
2022-11-20T01:16:50.437Z,341.85
2022-11-20T01:19:22.228Z,346.58
2022-11-20T01:21:51.468Z,350.23
2022-11-20T01:24:19.481Z,328.95
2022-11-20T01:26:47.415Z,344.42
2022-11-20T01:29:22.351Z,332.52
2022-11-20T01:31:49.334Z,330.40
2022-11-20T01:34:18.677Z,332.52
2022-11-20T01:36:45.718Z,332.67
2022-11-20T01:39:14.992Z,316.08
2022-11-20T01:42:00.382Z,337.30
2022-11-20T01:44:55.359Z,332.63
2022-11-20T01:47:34.407Z,336.23
2022-11-20T01:50:11.826Z,317.08
2022-11-20T01:52:49.215Z,324.77
2022-11-20T01:55:20.961Z,322.33
2022-11-20T01:57:47.758Z,309.70
2022-11-20T02:00:16.108Z,318.17
2022-11-20T02:02:45.531Z,329.48
2022-11-20T02:05:44.814Z,337.35
2022-11-20T02:08:11.577Z,324.05
2022-11-20T02:10:38.617Z,329.67
2022-11-20T02:13:23.984Z,317.73
2022-11-20T02:18:18.744Z,319.27
2022-11-20T02:20:47.399Z,326.73
2022-11-20T02:23:37.828Z,329.00
2022-11-20T02:26:05.923Z,326.60
2022-11-20T02:28:32.644Z,320.25
2022-11-20T02:30:59.748Z,324.23
2022-11-20T02:33:26.524Z,322.42
2022-11-20T02:35:53.584Z,319.25
2022-11-20T02:38:20.277Z,328.02
2022-11-20T02:40:51.404Z,310.75
2022-11-20T02:43:20.894Z,307.88
2022-11-20T02:45:47.980Z,312.80
2022-11-20T02:48:14.760Z,311.77
2022-11-20T02:50:41.904Z,310.35
2022-11-20T02:53:08.768Z,315.50
2022-11-20T02:55:35.803Z,309.05
2022-11-20T02:58:02.555Z,304.92
2022-11-20T03:00:29.571Z,305.50
2022-11-20T03:02:56.359Z,309.80
2022-11-20T03:05:23.857Z,304.92
2022-11-20T03:07:50.571Z,311.98
2022-11-20T03:10:17.851Z,315.52
2022-11-20T03:12:44.554Z,305.75
2022-11-20T03:15:11.655Z,313.00
2022-11-20T03:17:38.416Z,294.85
2022-11-20T03:20:06.891Z,301.95
2022-11-20T03:22:33.768Z,300.90
2022-11-20T03:25:00.781Z,295.98
2022-11-20T03:27:27.547Z,297.88
2022-11-20T03:29:54.523Z,299.30
2022-11-20T03:32:21.219Z,304.35
2022-11-20T03:34:48.259Z,302.23
2022-11-20T03:37:15.018Z,298.60
2022-11-20T03:39:42.084Z,299.65
2022-11-20T03:42:29.512Z,282.35
2022-11-20T03:44:56.576Z,300.92
2022-11-20T03:47:23.307Z,302.25
2022-11-20T03:49:50.355Z,287.15
2022-11-20T03:52:17.118Z,285.65
2022-11-20T03:54:44.184Z,282.23
2022-11-20T03:57:10.886Z,291.63
2022-11-20T03:59:37.890Z,286.88
2022-11-20T04:02:04.633Z,289.15
2022-11-20T04:04:31.742Z,302.70
2022-11-20T04:06:58.535Z,283.95
2022-11-20T04:09:25.659Z,280.15
2022-11-20T04:11:52.395Z,287.80
2022-11-20T04:14:19.465Z,277.45
2022-11-20T04:16:46.206Z,284.10
2022-11-20T04:19:15.049Z,281.95
2022-11-20T04:21:42.363Z,273.02
2022-11-20T04:24:09.581Z,291.45
2022-11-20T04:26:36.301Z,281.40
2022-11-20T04:29:03.399Z,282.73
2022-11-20T04:31:33.594Z,275.20
2022-11-20T04:34:04.859Z,281.00
2022-11-20T04:36:31.905Z,295.30
2022-11-20T04:39:01.018Z,273.13
2022-11-20T04:41:29.609Z,275.60
2022-11-20T04:44:00.588Z,275.83
2022-11-20T04:46:28.024Z,287.13
2022-11-20T04:48:55.015Z,272.70
2022-11-20T04:51:21.767Z,280.92
2022-11-20T04:53:48.873Z,270.80
2022-11-20T04:56:15.769Z,264.98
2022-11-20T04:58:42.882Z,256.67
2022-11-20T05:01:14.355Z,273.73
2022-11-20T05:03:42.649Z,263.25
2022-11-20T05:06:10.583Z,282.55
2022-11-20T05:08:37.632Z,257.95
2022-11-20T05:11:09.489Z,267.35
2022-11-20T05:13:36.680Z,263.95
2022-11-20T05:16:08.331Z,268.60
2022-11-20T05:18:35.909Z,260.05
2022-11-20T05:21:02.731Z,253.68
2022-11-20T05:23:31.804Z,272.40
2022-11-20T05:25:59.334Z,269.42
2022-11-20T05:28:27.368Z,252.27
2022-11-20T05:30:54.186Z,255.82
2022-11-20T05:33:21.581Z,265.65
2022-11-20T05:35:49.413Z,253.35
2022-11-20T05:38:16.671Z,259.88
2022-11-20T05:40:43.656Z,253.75
2022-11-20T05:43:10.769Z,245.65
2022-11-20T05:45:37.562Z,236.63
2022-11-20T05:48:04.790Z,258.98
2022-11-20T05:50:31.540Z,256.23
2022-11-20T05:53:01.670Z,246.25
2022-11-20T05:55:28.603Z,252.88
2022-11-20T05:57:56.074Z,247.57
2022-11-20T06:00:23.188Z,252.48
2022-11-20T06:02:50.341Z,241.05
2022-11-20T06:05:17.162Z,255.45
2022-11-20T06:07:44.178Z,246.73
2022-11-20T06:10:12.535Z,252.50
2022-11-20T06:12:39.574Z,249.07
2022-11-20T06:15:06.893Z,248.48
2022-11-20T06:17:33.910Z,248.15
2022-11-20T06:20:00.605Z,255.57
2022-11-20T06:22:27.641Z,244.77
2022-11-20T06:24:54.317Z,254.00
2022-11-20T06:27:21.346Z,246.02
2022-11-20T06:29:48.115Z,244.07
2022-11-20T06:32:15.142Z,243.52
2022-11-20T06:34:41.867Z,251.95
2022-11-20T06:37:08.870Z,254.32
2022-11-20T06:39:35.615Z,234.35
2022-11-20T06:42:02.654Z,237.95
2022-11-20T06:44:29.405Z,233.55
2022-11-20T06:46:56.445Z,237.77
2022-11-20T06:49:23.621Z,249.63
2022-11-20T06:51:50.786Z,225.60
2022-11-20T06:54:17.493Z,235.98
2022-11-20T06:56:48.755Z,235.10
2022-11-20T06:59:15.489Z,243.15
2022-11-20T07:01:42.508Z,225.93
2022-11-20T07:04:09.269Z,230.75
2022-11-20T07:06:36.305Z,241.10
2022-11-20T07:09:03.181Z,239.10
2022-11-20T07:11:30.218Z,233.77
2022-11-20T07:13:57.792Z,240.85
2022-11-20T07:16:24.864Z,228.23
2022-11-20T07:18:51.557Z,235.05
2022-11-20T07:21:18.602Z,224.50
2022-11-20T07:23:45.336Z,224.15
2022-11-20T07:26:12.430Z,235.68
2022-11-20T07:28:39.259Z,226.50
2022-11-20T07:31:07.738Z,246.25
2022-11-20T07:33:34.917Z,247.57
2022-11-20T07:36:02.229Z,241.98
2022-11-20T07:38:29.170Z,233.13
2022-11-20T07:40:57.474Z,259.90
2022-11-20T07:43:25.132Z,252.07
2022-11-20T07:45:52.172Z,242.65
2022-11-20T07:48:18.876Z,263.60
2022-11-20T07:50:45.883Z,266.88
2022-11-20T07:53:13.702Z,264.70
2022-11-20T07:55:40.943Z,290.60
2022-11-20T07:58:07.794Z,299.27
2022-11-20T08:00:34.833Z,308.52
2022-11-20T08:03:04.988Z,299.13
2022-11-20T08:05:32.041Z,283.02
2022-11-20T08:07:58.773Z,315.50
2022-11-20T08:10:25.986Z,298.90
2022-11-20T08:13:11.844Z,308.98
2022-11-20T08:15:40.780Z,316.58
2022-11-20T08:18:29.917Z,313.20
2022-11-20T08:20:56.264Z,298.27
2022-11-20T08:23:23.652Z,325.05
2022-11-20T08:25:50.986Z,305.33
2022-11-20T08:28:21.161Z,306.88
2022-11-20T08:30:49.978Z,290.77
2022-11-20T08:33:18.381Z,282.98
2022-11-20T08:35:45.527Z,289.27
2022-11-20T08:38:12.286Z,278.63
2022-11-20T08:40:39.324Z,267.63
2022-11-20T08:43:06.030Z,256.02
2022-11-20T08:45:34.887Z,268.38
2022-11-20T08:48:02.911Z,254.15
2022-11-20T08:50:31.711Z,250.85
2022-11-20T08:53:06.113Z,259.38
2022-11-20T08:55:33.333Z,243.38
2022-11-20T08:58:04.638Z,244.70
2022-11-20T09:00:31.713Z,233.90
2022-11-20T09:02:59.626Z,230.02
2022-11-20T09:05:26.722Z,224.63
2022-11-20T09:07:56.691Z,239.20
2022-11-20T09:10:24.940Z,213.10
2022-11-20T09:12:53.248Z,209.95
2022-11-20T09:15:20.351Z,212.48
2022-11-20T09:17:57.813Z,197.13
2022-11-20T09:20:25.388Z,200.48
2022-11-20T09:22:52.420Z,191.68
2022-11-20T09:25:19.527Z,194.15
2022-11-20T09:27:47.152Z,187.15
2022-11-20T09:30:15.263Z,179.60
2022-11-20T09:32:42.262Z,180.02
2022-11-20T09:35:09.752Z,187.73
2022-11-20T09:37:36.752Z,180.88
2022-11-20T09:40:04.116Z,185.40
2022-11-20T09:42:48.961Z,169.77
2022-11-20T09:45:47.169Z,169.98
2022-11-20T09:48:16.688Z,171.85
2022-11-20T09:50:48.855Z,172.50
2022-11-20T09:53:41.959Z,159.43
2022-11-20T09:56:09.796Z,159.10
2022-11-20T09:58:55.749Z,158.30
2022-11-20T10:01:24.625Z,159.55
2022-11-20T10:04:03.622Z,145.13
2022-11-20T10:06:42.340Z,143.85
2022-11-20T10:09:27.988Z,150.05
2022-11-20T10:12:07.257Z,143.77
2022-11-20T10:14:46.100Z,142.80
2022-11-20T10:17:32.048Z,132.77
2022-11-20T10:20:32.537Z,143.02
2022-11-20T10:23:40.965Z,132.18
2022-11-20T10:26:23.894Z,133.65
2022-11-20T10:29:02.391Z,118.00
2022-11-20T10:31:34.472Z,116.05
2022-11-20T10:34:11.978Z,117.97
2022-11-20T10:36:42.649Z,117.55
2022-11-20T10:39:20.232Z,110.28
2022-11-20T10:41:48.540Z,109.95
2022-11-20T10:44:39.928Z,101.25
2022-11-20T10:47:22.653Z,108.13
2022-11-20T10:49:52.295Z,100.57
2022-11-20T10:52:50.418Z,108.20
2022-11-20T10:55:46.180Z,107.47
2022-11-20T10:58:34.642Z,96.25
2022-11-20T11:01:24.174Z,96.05
2022-11-20T11:03:52.756Z,93.63
2022-11-20T11:06:41.095Z,93.57
2022-11-20T11:09:18.394Z,92.40
2022-11-20T11:11:45.401Z,88.25
2022-11-20T11:14:15.864Z,85.43
2022-11-20T11:16:58.630Z,86.50
2022-11-20T11:19:25.840Z,83.40
2022-11-20T11:21:57.519Z,80.55
2022-11-20T11:24:42.823Z,77.90
2022-11-20T11:27:17.215Z,83.90
2022-11-20T11:29:44.927Z,85.32
2022-11-20T11:32:15.060Z,82.15
2022-11-20T11:34:41.826Z,85.95
2022-11-20T11:37:19.282Z,80.25
2022-11-20T11:39:47.551Z,89.25
2022-11-20T11:42:19.519Z,88.13
2022-11-20T11:45:05.990Z,82.50
2022-11-20T11:47:39.127Z,83.18
2022-11-20T11:50:22.095Z,81.55
2022-11-20T11:53:07.429Z,86.43
2022-11-20T11:56:00.045Z,83.07
2022-11-20T11:58:42.286Z,80.35
2022-11-20T12:01:12.859Z,81.75
2022-11-20T12:03:42.297Z,88.80
2022-11-20T12:06:15.748Z,93.90
2022-11-20T12:08:47.865Z,98.38
2022-11-20T12:11:19.495Z,96.00
2022-11-20T12:13:46.620Z,99.13
2022-11-20T12:16:15.635Z,93.80
2022-11-20T12:18:42.995Z,100.75
2022-11-20T12:21:25.426Z,99.43
2022-11-20T12:24:16.529Z,100.45
2022-11-20T12:26:56.515Z,99.07
2022-11-20T12:29:46.819Z,92.22
2022-11-20T12:32:16.590Z,92.43
2022-11-20T12:35:01.439Z,89.97
2022-11-20T12:37:45.687Z,100.47
2022-11-20T12:40:34.136Z,83.32
2022-11-20T12:43:25.414Z,94.57
2022-11-20T12:46:18.316Z,91.88
2022-11-20T12:48:48.066Z,92.25
2022-11-20T12:51:54.628Z,90.20
2022-11-20T12:54:51.982Z,84.07
2022-11-20T12:57:35.533Z,90.00
2022-11-20T13:00:07.316Z,85.68
2022-11-20T13:02:40.228Z,84.10
2022-11-20T13:05:19.242Z,81.00
2022-11-20T13:07:47.032Z,86.13
2022-11-20T13:10:25.878Z,79.63
2022-11-20T13:12:58.477Z,82.55
2022-11-20T13:15:43.996Z,90.95
2022-11-20T13:18:11.416Z,78.88
2022-11-20T13:20:42.672Z,77.30
2022-11-20T13:23:09.752Z,84.82
2022-11-20T13:25:38.212Z,84.05
2022-11-20T13:28:12.498Z,83.57
2022-11-20T13:30:50.564Z,94.15
2022-11-20T13:33:31.689Z,92.93
2022-11-20T13:36:20.589Z,88.10
2022-11-20T13:38:49.267Z,93.57
2022-11-20T13:41:36.586Z,96.43
2022-11-20T13:44:09.860Z,96.47
2022-11-20T13:46:40.698Z,96.88
2022-11-20T13:49:10.337Z,107.55
2022-11-20T13:51:51.604Z,100.65
2022-11-20T13:54:52.716Z,107.50
2022-11-20T13:57:33.714Z,104.22
2022-11-20T14:00:21.893Z,104.25
2022-11-20T14:03:06.791Z,106.53
2022-11-20T14:05:41.526Z,110.93
2022-11-20T14:08:15.494Z,118.60
2022-11-20T14:10:42.790Z,126.30
2022-11-20T14:13:20.012Z,126.03
2022-11-20T14:15:47.169Z,126.65
2022-11-20T14:18:15.947Z,126.43
2022-11-20T14:20:43.431Z,133.05
2022-11-20T14:23:11.065Z,136.77
2022-11-20T14:25:38.232Z,133.15
2022-11-20T14:28:04.982Z,132.00
2022-11-20T14:30:52.417Z,136.27
2022-11-20T14:33:20.843Z,130.13
2022-11-20T14:35:58.032Z,139.73
2022-11-20T14:38:27.023Z,131.95
2022-11-20T14:40:54.116Z,133.70
2022-11-20T14:43:28.074Z,133.25
2022-11-20T14:46:02.421Z,123.10
2022-11-20T14:48:39.311Z,119.40
2022-11-20T14:51:06.412Z,114.00
2022-11-20T14:53:33.170Z,107.40
2022-11-20T14:56:02.077Z,96.60
2022-11-20T14:58:31.154Z,97.32
2022-11-20T15:01:02.993Z,96.30
2022-11-20T15:03:37.495Z,94.25
2022-11-20T15:06:08.910Z,89.95
2022-11-20T15:08:35.696Z,86.32
2022-11-20T15:11:02.879Z,82.03
2022-11-20T15:13:37.468Z,82.57
2022-11-20T15:16:05.604Z,75.78
2022-11-20T15:18:34.074Z,74.20
2022-11-20T15:21:04.895Z,76.93
2022-11-20T15:23:31.611Z,70.80
2022-11-20T15:25:58.718Z,74.22
2022-11-20T15:28:31.606Z,72.25
2022-11-20T15:30:58.922Z,68.05
2022-11-20T15:33:25.659Z,70.85
2022-11-20T15:35:52.724Z,70.93
2022-11-20T15:38:19.421Z,64.10
2022-11-20T15:40:46.455Z,69.00
2022-11-20T15:43:14.078Z,69.28
2022-11-20T15:45:43.765Z,67.50
2022-11-20T15:48:14.430Z,67.15
2022-11-20T15:51:00.963Z,69.28
2022-11-20T15:53:28.204Z,73.47
2022-11-20T15:55:55.323Z,74.90
2022-11-20T15:58:23.939Z,77.47
2022-11-20T16:00:51.398Z,83.65
2022-11-20T16:03:18.473Z,88.95
2022-11-20T16:05:45.677Z,86.28
2022-11-20T16:08:12.470Z,86.15
2022-11-20T16:10:39.986Z,96.40
2022-11-20T16:13:32.506Z,91.95
2022-11-20T16:16:00.333Z,99.10
2022-11-20T16:18:27.055Z,100.85
2022-11-20T16:20:54.609Z,112.78
2022-11-20T16:23:21.609Z,112.28
2022-11-20T16:25:48.847Z,118.13
2022-11-20T16:28:18.929Z,121.25
2022-11-20T16:30:46.842Z,123.50
2022-11-20T16:33:15.285Z,130.45
2022-11-20T16:35:42.509Z,132.80
2022-11-20T16:38:09.315Z,136.88
2022-11-20T16:40:36.446Z,137.57
2022-11-20T16:43:09.743Z,139.93
2022-11-20T16:45:41.270Z,129.73
2022-11-20T16:48:08.060Z,142.07
2022-11-20T16:50:35.086Z,149.10
2022-11-20T16:53:01.821Z,150.75
2022-11-20T16:55:28.846Z,152.43
2022-11-20T16:57:55.583Z,149.90
2022-11-20T17:00:22.642Z,151.20
2022-11-20T17:02:49.474Z,152.23
2022-11-20T17:05:16.604Z,146.77
2022-11-20T17:07:43.343Z,148.18
2022-11-20T17:10:10.418Z,146.88
2022-11-20T17:12:37.172Z,148.38
2022-11-20T17:15:04.598Z,140.05
2022-11-20T17:17:31.317Z,141.52
2022-11-20T17:19:58.759Z,151.05
2022-11-20T17:22:25.484Z,149.45
2022-11-20T17:24:52.512Z,144.73
2022-11-20T17:27:19.189Z,137.70
2022-11-20T17:29:46.249Z,134.27
2022-11-20T17:32:13.071Z,134.90
2022-11-20T17:34:40.116Z,128.57
2022-11-20T17:37:06.915Z,128.48
2022-11-20T17:39:34.011Z,120.97
2022-11-20T17:42:19.178Z,120.45
2022-11-20T17:44:47.388Z,113.38
2022-11-20T17:47:14.206Z,113.43
2022-11-20T17:49:41.331Z,107.30
2022-11-20T17:52:08.029Z,107.65
2022-11-20T17:54:35.215Z,106.72
2022-11-20T17:57:20.484Z,104.03
2022-11-20T17:59:47.569Z,101.38
2022-11-20T18:02:14.506Z,99.28
2022-11-20T18:04:41.598Z,97.07
2022-11-20T18:07:08.721Z,92.57
2022-11-20T18:09:35.743Z,98.85
2022-11-20T18:12:02.468Z,97.63
2022-11-20T18:14:32.869Z,95.28
2022-11-20T18:17:02.705Z,103.07
2022-11-20T18:19:42.604Z,97.35
2022-11-20T18:22:12.583Z,99.28
2022-11-20T18:24:39.974Z,91.72
2022-11-20T18:27:07.456Z,94.18
2022-11-20T18:29:34.570Z,93.93
2022-11-20T18:32:01.583Z,89.10
2022-11-20T18:34:28.729Z,91.70
2022-11-20T18:36:55.504Z,86.65
2022-11-20T18:39:23.640Z,86.13
2022-11-20T18:42:09.056Z,92.13
2022-11-20T18:44:55.045Z,96.20
2022-11-20T18:49:54.373Z,105.35
2022-11-20T18:52:23.154Z,96.05
2022-11-20T18:54:50.455Z,101.68
2022-11-20T18:57:18.427Z,106.95
2022-11-20T18:59:45.709Z,92.40
2022-11-20T19:02:13.598Z,93.80
2022-11-20T19:04:40.850Z,94.28
2022-11-20T19:07:07.887Z,93.13
2022-11-20T19:09:34.945Z,94.65
2022-11-20T19:12:01.645Z,95.70
2022-11-20T19:14:28.642Z,91.85
2022-11-20T19:16:55.410Z,89.55
2022-11-20T19:19:22.660Z,86.68
2022-11-20T19:21:49.602Z,91.57
2022-11-20T19:24:16.806Z,89.22
2022-11-20T19:26:43.644Z,85.72
2022-11-20T19:29:11.394Z,89.25
2022-11-20T19:31:38.114Z,83.82
2022-11-20T19:34:05.128Z,84.18
2022-11-20T19:36:39.166Z,80.05
2022-11-20T19:39:10.490Z,88.30
2022-11-20T19:41:38.334Z,79.28
2022-11-20T19:44:15.487Z,77.45
2022-11-20T19:46:42.426Z,72.32
2022-11-20T19:49:10.908Z,77.70
2022-11-20T19:51:38.575Z,79.03
2022-11-20T19:54:05.891Z,84.25
2022-11-20T19:56:33.407Z,86.60
2022-11-20T19:59:00.895Z,92.32
2022-11-20T20:01:29.301Z,93.22
2022-11-20T20:03:58.370Z,89.70
2022-11-20T20:06:25.857Z,89.80
2022-11-20T20:08:57.290Z,87.25
2022-11-20T20:11:25.089Z,85.97
2022-11-20T20:13:52.389Z,84.32
2022-11-20T20:16:20.745Z,81.80
2022-11-20T20:18:47.995Z,87.40
2022-11-20T20:21:16.830Z,83.63
2022-11-20T20:23:44.457Z,88.68
2022-11-20T20:26:11.350Z,87.72
2022-11-20T20:28:38.561Z,92.15
2022-11-20T20:31:15.980Z,90.38
2022-11-20T20:33:43.234Z,95.85
2022-11-20T20:36:11.233Z,91.68
2022-11-20T20:38:38.232Z,98.30
2022-11-20T20:41:05.117Z,98.22
2022-11-20T20:43:32.138Z,99.63
2022-11-20T20:45:58.844Z,94.28
2022-11-20T20:48:25.936Z,98.53
2022-11-20T20:51:00.110Z,101.32
2022-11-20T20:53:27.606Z,103.05
2022-11-20T20:55:58.189Z,105.38
2022-11-20T20:58:25.350Z,115.20
2022-11-20T21:00:52.216Z,113.13
2022-11-20T21:03:19.279Z,110.55
2022-11-20T21:05:46.327Z,121.20
2022-11-20T21:08:22.502Z,112.97
2022-11-20T21:10:49.418Z,112.25
2022-11-20T21:13:16.453Z,113.90
2022-11-20T21:15:43.436Z,116.45
2022-11-20T21:18:10.489Z,113.60
2022-11-20T21:20:58.458Z,115.28
2022-11-20T21:23:25.503Z,115.35
2022-11-20T21:25:52.296Z,104.18
2022-11-20T21:28:19.355Z,118.93
2022-11-20T21:30:46.604Z,118.03
2022-11-20T21:33:13.939Z,114.20
2022-11-20T21:35:41.483Z,116.78
2022-11-20T21:38:08.550Z,113.65
2022-11-20T21:40:35.305Z,106.85
2022-11-20T21:43:02.341Z,108.25
2022-11-20T21:45:29.092Z,104.65
2022-11-20T21:47:56.081Z,105.22
2022-11-20T21:50:24.033Z,99.43
2022-11-20T21:52:51.955Z,101.70
2022-11-20T21:55:18.699Z,109.72
2022-11-20T21:57:45.811Z,119.05
2022-11-20T22:00:13.144Z,119.72
2022-11-20T22:02:40.509Z,139.00
2022-11-20T22:05:08.156Z,146.57
2022-11-20T22:07:35.424Z,149.38
2022-11-20T22:10:02.259Z,143.10
2022-11-20T22:12:29.287Z,132.10
2022-11-20T22:14:55.983Z,129.13
2022-11-20T22:17:43.054Z,133.23
2022-11-20T22:20:10.304Z,135.75
2022-11-20T22:22:37.317Z,125.72
2022-11-20T22:25:04.274Z,131.30
2022-11-20T22:27:31.359Z,118.15
2022-11-20T22:29:58.127Z,109.40
2022-11-20T22:32:25.153Z,114.32
2022-11-20T22:34:51.899Z,113.80
2022-11-20T22:37:18.928Z,109.53
2022-11-20T22:39:45.623Z,109.43
2022-11-20T22:42:12.612Z,109.03
2022-11-20T22:44:39.347Z,106.32
2022-11-20T22:47:11.226Z,113.65
2022-11-20T22:49:38.300Z,105.47
2022-11-20T22:52:05.376Z,102.63
2022-11-20T22:54:32.149Z,106.10
2022-11-20T22:56:59.200Z,106.00
2022-11-20T22:59:26.146Z,100.90
2022-11-20T23:01:53.357Z,102.40
2022-11-20T23:04:20.163Z,97.32
2022-11-20T23:06:47.185Z,99.03
2022-11-20T23:09:13.999Z,106.35
2022-11-20T23:11:41.018Z,99.72
2022-11-20T23:14:12.303Z,96.95
2022-11-20T23:16:39.442Z,100.28
2022-11-20T23:19:11.165Z,102.03
2022-11-20T23:21:38.987Z,106.18
2022-11-20T23:24:06.242Z,108.55
2022-11-20T23:26:35.337Z,101.47
2022-11-20T23:29:02.162Z,103.75
2022-11-20T23:31:30.605Z,107.15
2022-11-20T23:33:57.390Z,106.03
2022-11-20T23:36:24.422Z,111.63
2022-11-20T23:38:51.144Z,108.57
2022-11-20T23:41:18.170Z,119.25
2022-11-20T23:43:44.885Z,109.53
2022-11-20T23:46:16.208Z,104.97
2022-11-20T23:48:44.873Z,105.22
2022-11-20T23:51:12.030Z,107.07
2022-11-20T23:53:38.733Z,107.30
2022-11-20T23:56:06.058Z,105.32
2022-11-20T23:58:34.554Z,103.60
